sensor_id;sensor_type;location;lat;lon;timestamp;P1;durP1;ratioP1;P2;durP2;ratioP2
41059;SDS011;26811;53.160;8.202;2023-03-11T00:03:28;13.45;;;4.75;;
41059;SDS011;26811;53.160;8.202;2023-03-11T00:08:29;9.30;;;4.80;;
41059;SDS011;26811;53.160;8.202;2023-03-11T00:13:31;9.60;;;5.15;;
41059;SDS011;26811;53.160;8.202;2023-03-11T00:18:31;13.13;;;4.75;;
41059;SDS011;26811;53.160;8.202;2023-03-11T00:23:32;9.82;;;4.68;;
41059;SDS011;26811;53.160;8.202;2023-03-11T00:28:34;10.05;;;4.38;;
41059;SDS011;26811;53.160;8.202;2023-03-11T00:33:35;11.45;;;4.57;;
41059;SDS011;26811;53.160;8.202;2023-03-11T00:38:35;8.10;;;4.63;;
41059;SDS011;26811;53.160;8.202;2023-03-11T00:43:36;11.00;;;4.72;;
41059;SDS011;26811;53.160;8.202;2023-03-11T00:48:37;11.55;;;4.65;;
41059;SDS011;26811;53.160;8.202;2023-03-11T00:53:37;7.40;;;5.60;;
41059;SDS011;26811;53.160;8.202;2023-03-11T00:58:38;10.00;;;5.03;;
41059;SDS011;26811;53.160;8.202;2023-03-11T01:03:39;9.68;;;5.10;;
41059;SDS011;26811;53.160;8.202;2023-03-11T01:08:40;16.35;;;5.55;;
41059;SDS011;26811;53.160;8.202;2023-03-11T01:13:42;9.00;;;4.82;;
41059;SDS011;26811;53.160;8.202;2023-03-11T01:18:42;12.77;;;5.55;;
41059;SDS011;26811;53.160;8.202;2023-03-11T01:23:43;12.68;;;5.30;;
41059;SDS011;26811;53.160;8.202;2023-03-11T01:28:43;18.17;;;4.10;;
41059;SDS011;26811;53.160;8.202;2023-03-11T01:33:44;22.65;;;4.57;;
41059;SDS011;26811;53.160;8.202;2023-03-11T01:38:45;6.25;;;4.38;;
41059;SDS011;26811;53.160;8.202;2023-03-11T01:43:47;13.57;;;4.43;;
41059;SDS011;26811;53.160;8.202;2023-03-11T01:48:50;8.38;;;4.55;;
41059;SDS011;26811;53.160;8.202;2023-03-11T01:54:03;15.60;;;4.30;;
41059;SDS011;26811;53.160;8.202;2023-03-11T01:59:10;10.88;;;3.75;;
41059;SDS011;26811;53.160;8.202;2023-03-11T02:04:13;11.02;;;4.15;;
41059;SDS011;26811;53.160;8.202;2023-03-11T02:09:14;11.80;;;4.13;;
41059;SDS011;26811;53.160;8.202;2023-03-11T02:14:15;6.20;;;3.63;;
41059;SDS011;26811;53.160;8.202;2023-03-11T02:24:45;9.32;;;3.80;;
41059;SDS011;26811;53.160;8.202;2023-03-11T02:29:59;19.42;;;4.30;;
41059;SDS011;26811;53.160;8.202;2023-03-11T02:35:00;10.68;;;3.47;;
41059;SDS011;26811;53.160;8.202;2023-03-11T02:40:24;9.02;;;3.90;;
41059;SDS011;26811;53.160;8.202;2023-03-11T02:45:34;7.60;;;4.17;;
41059;SDS011;26811;53.160;8.202;2023-03-11T02:50:35;5.80;;;3.80;;
41059;SDS011;26811;53.160;8.202;2023-03-11T02:55:36;7.47;;;3.63;;
41059;SDS011;26811;53.160;8.202;2023-03-11T03:00:36;9.77;;;4.30;;
41059;SDS011;26811;53.160;8.202;2023-03-11T03:05:37;12.40;;;3.85;;
41059;SDS011;26811;53.160;8.202;2023-03-11T03:10:37;15.20;;;4.38;;
41059;SDS011;26811;53.160;8.202;2023-03-11T03:15:38;11.20;;;4.90;;
41059;SDS011;26811;53.160;8.202;2023-03-11T03:20:39;15.60;;;5.03;;
41059;SDS011;26811;53.160;8.202;2023-03-11T03:25:42;15.35;;;6.03;;
41059;SDS011;26811;53.160;8.202;2023-03-11T03:30:44;16.00;;;4.65;;
41059;SDS011;26811;53.160;8.202;2023-03-11T03:35:45;6.30;;;4.28;;
41059;SDS011;26811;53.160;8.202;2023-03-11T03:40:45;11.55;;;4.45;;
41059;SDS011;26811;53.160;8.202;2023-03-11T03:45:57;10.63;;;3.75;;
41059;SDS011;26811;53.160;8.202;2023-03-11T03:51:02;11.23;;;3.92;;
41059;SDS011;26811;53.160;8.202;2023-03-11T03:56:04;14.98;;;5.00;;
41059;SDS011;26811;53.160;8.202;2023-03-11T04:01:06;20.23;;;5.03;;
41059;SDS011;26811;53.160;8.202;2023-03-11T04:06:18;10.10;;;4.38;;
41059;SDS011;26811;53.160;8.202;2023-03-11T04:11:21;20.65;;;5.95;;
41059;SDS011;26811;53.160;8.202;2023-03-11T04:16:21;23.58;;;5.72;;
41059;SDS011;26811;53.160;8.202;2023-03-11T04:21:23;13.48;;;3.70;;
41059;SDS011;26811;53.160;8.202;2023-03-11T04:26:23;14.32;;;5.10;;
41059;SDS011;26811;53.160;8.202;2023-03-11T04:31:24;11.68;;;4.53;;
41059;SDS011;26811;53.160;8.202;2023-03-11T04:36:24;8.45;;;3.67;;
41059;SDS011;26811;53.160;8.202;2023-03-11T04:41:25;8.98;;;4.03;;
41059;SDS011;26811;53.160;8.202;2023-03-11T04:46:26;13.82;;;4.57;;
41059;SDS011;26811;53.160;8.202;2023-03-11T04:51:26;16.20;;;4.47;;
41059;SDS011;26811;53.160;8.202;2023-03-11T04:56:27;9.52;;;4.63;;
41059;SDS011;26811;53.160;8.202;2023-03-11T05:01:27;20.98;;;6.88;;
41059;SDS011;26811;53.160;8.202;2023-03-11T05:06:28;17.58;;;6.40;;
41059;SDS011;26811;53.160;8.202;2023-03-11T05:11:28;17.55;;;5.93;;
41059;SDS011;26811;53.160;8.202;2023-03-11T05:16:29;17.25;;;7.10;;
41059;SDS011;26811;53.160;8.202;2023-03-11T05:21:29;11.35;;;5.20;;
41059;SDS011;26811;53.160;8.202;2023-03-11T05:26:30;9.40;;;4.70;;
41059;SDS011;26811;53.160;8.202;2023-03-11T05:31:30;10.95;;;4.65;;
41059;SDS011;26811;53.160;8.202;2023-03-11T05:36:31;6.90;;;4.40;;
41059;SDS011;26811;53.160;8.202;2023-03-11T05:41:32;7.35;;;4.80;;
41059;SDS011;26811;53.160;8.202;2023-03-11T05:46:32;9.65;;;4.60;;
41059;SDS011;26811;53.160;8.202;2023-03-11T05:51:33;7.07;;;4.10;;
41059;SDS011;26811;53.160;8.202;2023-03-11T05:56:34;5.40;;;4.03;;
41059;SDS011;26811;53.160;8.202;2023-03-11T06:01:34;5.10;;;4.10;;
41059;SDS011;26811;53.160;8.202;2023-03-11T06:06:35;6.47;;;4.40;;
41059;SDS011;26811;53.160;8.202;2023-03-11T06:11:37;12.50;;;4.05;;
41059;SDS011;26811;53.160;8.202;2023-03-11T06:16:38;12.30;;;4.15;;
41059;SDS011;26811;53.160;8.202;2023-03-11T06:21:39;8.68;;;4.55;;
41059;SDS011;26811;53.160;8.202;2023-03-11T06:26:40;11.48;;;5.18;;
41059;SDS011;26811;53.160;8.202;2023-03-11T06:31:40;20.23;;;5.72;;
41059;SDS011;26811;53.160;8.202;2023-03-11T06:36:41;17.90;;;4.78;;
41059;SDS011;26811;53.160;8.202;2023-03-11T06:41:41;10.52;;;4.55;;
41059;SDS011;26811;53.160;8.202;2023-03-11T06:46:42;10.27;;;4.72;;
41059;SDS011;26811;53.160;8.202;2023-03-11T06:51:42;8.02;;;4.32;;
41059;SDS011;26811;53.160;8.202;2023-03-11T06:56:43;11.65;;;4.50;;
41059;SDS011;26811;53.160;8.202;2023-03-11T07:01:44;9.10;;;4.47;;
41059;SDS011;26811;53.160;8.202;2023-03-11T07:06:44;5.82;;;4.43;;
41059;SDS011;26811;53.160;8.202;2023-03-11T07:11:45;16.27;;;5.10;;
41059;SDS011;26811;53.160;8.202;2023-03-11T07:16:46;7.25;;;4.50;;
41059;SDS011;26811;53.160;8.202;2023-03-11T07:21:46;11.77;;;4.78;;
41059;SDS011;26811;53.160;8.202;2023-03-11T07:26:47;7.25;;;4.00;;
41059;SDS011;26811;53.160;8.202;2023-03-11T07:31:48;7.45;;;3.70;;
41059;SDS011;26811;53.160;8.202;2023-03-11T07:36:48;10.45;;;4.10;;
41059;SDS011;26811;53.160;8.202;2023-03-11T07:41:49;14.68;;;6.10;;
41059;SDS011;26811;53.160;8.202;2023-03-11T07:46:49;25.90;;;7.88;;
41059;SDS011;26811;53.160;8.202;2023-03-11T07:51:50;15.30;;;6.70;;
41059;SDS011;26811;53.160;8.202;2023-03-11T07:56:50;11.40;;;3.78;;
41059;SDS011;26811;53.160;8.202;2023-03-11T08:01:51;13.35;;;3.38;;
41059;SDS011;26811;53.160;8.202;2023-03-11T08:06:52;8.35;;;3.60;;
41059;SDS011;26811;53.160;8.202;2023-03-11T08:11:52;5.57;;;3.35;;
41059;SDS011;26811;53.160;8.202;2023-03-11T08:16:53;13.88;;;4.47;;
41059;SDS011;26811;53.160;8.202;2023-03-11T08:21:53;8.90;;;3.40;;
41059;SDS011;26811;53.160;8.202;2023-03-11T08:26:54;8.02;;;3.25;;
41059;SDS011;26811;53.160;8.202;2023-03-11T08:31:56;10.48;;;3.60;;
41059;SDS011;26811;53.160;8.202;2023-03-11T08:36:56;5.95;;;3.53;;
41059;SDS011;26811;53.160;8.202;2023-03-11T08:41:57;7.30;;;3.05;;
41059;SDS011;26811;53.160;8.202;2023-03-11T08:46:59;11.63;;;3.78;;
41059;SDS011;26811;53.160;8.202;2023-03-11T08:52:00;7.32;;;3.38;;
41059;SDS011;26811;53.160;8.202;2023-03-11T08:57:01;6.57;;;3.10;;
41059;SDS011;26811;53.160;8.202;2023-03-11T09:02:03;11.43;;;3.97;;
41059;SDS011;26811;53.160;8.202;2023-03-11T09:07:04;7.65;;;3.60;;
41059;SDS011;26811;53.160;8.202;2023-03-11T09:12:04;10.75;;;3.70;;
41059;SDS011;26811;53.160;8.202;2023-03-11T09:17:07;9.07;;;3.72;;
41059;SDS011;26811;53.160;8.202;2023-03-11T09:22:09;13.02;;;4.30;;
41059;SDS011;26811;53.160;8.202;2023-03-11T09:27:09;8.88;;;3.88;;
41059;SDS011;26811;53.160;8.202;2023-03-11T09:32:12;5.28;;;3.13;;
41059;SDS011;26811;53.160;8.202;2023-03-11T09:37:13;13.73;;;3.95;;
41059;SDS011;26811;53.160;8.202;2023-03-11T09:42:16;10.50;;;4.68;;
41059;SDS011;26811;53.160;8.202;2023-03-11T09:52:43;16.85;;;4.78;;
41059;SDS011;26811;53.160;8.202;2023-03-11T09:57:44;12.65;;;5.07;;
41059;SDS011;26811;53.160;8.202;2023-03-11T10:02:44;10.93;;;4.68;;
41059;SDS011;26811;53.160;8.202;2023-03-11T10:07:46;17.77;;;4.35;;
41059;SDS011;26811;53.160;8.202;2023-03-11T10:13:09;8.90;;;3.90;;
41059;SDS011;26811;53.160;8.202;2023-03-11T10:34:22;13.30;;;3.85;;
41059;SDS011;26811;53.160;8.202;2023-03-11T10:44:39;7.53;;;4.72;;
41059;SDS011;26811;53.160;8.202;2023-03-11T10:49:41;10.68;;;4.10;;
41059;SDS011;26811;53.160;8.202;2023-03-11T10:54:43;18.48;;;4.28;;
41059;SDS011;26811;53.160;8.202;2023-03-11T11:05:05;13.95;;;4.13;;
41059;SDS011;26811;53.160;8.202;2023-03-11T11:10:23;9.32;;;3.65;;
41059;SDS011;26811;53.160;8.202;2023-03-11T11:20:32;16.05;;;3.75;;
41059;SDS011;26811;53.160;8.202;2023-03-11T11:25:34;15.38;;;4.15;;
41059;SDS011;26811;53.160;8.202;2023-03-11T11:30:37;12.27;;;3.80;;
41059;SDS011;26811;53.160;8.202;2023-03-11T11:35:58;8.10;;;3.90;;
41059;SDS011;26811;53.160;8.202;2023-03-11T11:41:01;11.02;;;4.00;;
41059;SDS011;26811;53.160;8.202;2023-03-11T11:46:04;6.95;;;3.58;;
41059;SDS011;26811;53.160;8.202;2023-03-11T11:51:23;5.78;;;3.53;;
41059;SDS011;26811;53.160;8.202;2023-03-11T11:56:46;6.68;;;3.70;;
41059;SDS011;26811;53.160;8.202;2023-03-11T12:02:10;9.93;;;3.47;;
41059;SDS011;26811;53.160;8.202;2023-03-11T12:12:52;14.60;;;3.90;;
41059;SDS011;26811;53.160;8.202;2023-03-11T12:18:15;9.45;;;3.22;;
41059;SDS011;26811;53.160;8.202;2023-03-11T12:34:01;8.98;;;4.50;;
41059;SDS011;26811;53.160;8.202;2023-03-11T12:39:04;6.35;;;4.00;;
41059;SDS011;26811;53.160;8.202;2023-03-11T12:54:27;5.50;;;3.00;;
41059;SDS011;26811;53.160;8.202;2023-03-11T13:05:11;10.98;;;3.70;;
41059;SDS011;26811;53.160;8.202;2023-03-11T13:15:37;9.07;;;3.42;;
41059;SDS011;26811;53.160;8.202;2023-03-11T13:25:42;6.95;;;4.07;;
41059;SDS011;26811;53.160;8.202;2023-03-11T13:31:03;5.15;;;3.03;;
41059;SDS011;26811;53.160;8.202;2023-03-11T13:36:36;38.85;;;14.07;;
41059;SDS011;26811;53.160;8.202;2023-03-11T13:41:47;46.50;;;17.17;;
41059;SDS011;26811;53.160;8.202;2023-03-11T13:46:49;15.68;;;9.48;;
41059;SDS011;26811;53.160;8.202;2023-03-11T13:51:57;5.95;;;3.63;;
41059;SDS011;26811;53.160;8.202;2023-03-11T13:57:01;6.75;;;4.40;;
41059;SDS011;26811;53.160;8.202;2023-03-11T14:07:27;5.97;;;3.20;;
41059;SDS011;26811;53.160;8.202;2023-03-11T14:12:29;5.22;;;4.13;;
41059;SDS011;26811;53.160;8.202;2023-03-11T14:17:30;6.55;;;4.57;;
41059;SDS011;26811;53.160;8.202;2023-03-11T14:22:31;10.88;;;6.07;;
41059;SDS011;26811;53.160;8.202;2023-03-11T14:27:32;10.32;;;3.90;;
41059;SDS011;26811;53.160;8.202;2023-03-11T14:32:34;6.22;;;3.85;;
41059;SDS011;26811;53.160;8.202;2023-03-11T14:37:35;5.22;;;2.83;;
41059;SDS011;26811;53.160;8.202;2023-03-11T14:42:37;3.80;;;3.40;;
41059;SDS011;26811;53.160;8.202;2023-03-11T14:47:50;7.20;;;3.45;;
41059;SDS011;26811;53.160;8.202;2023-03-11T14:58:34;14.38;;;7.28;;
41059;SDS011;26811;53.160;8.202;2023-03-11T15:08:55;6.00;;;4.47;;
41059;SDS011;26811;53.160;8.202;2023-03-11T15:19:31;5.32;;;3.03;;
41059;SDS011;26811;53.160;8.202;2023-03-11T15:24:33;4.80;;;2.63;;
41059;SDS011;26811;53.160;8.202;2023-03-11T15:29:34;5.22;;;3.17;;
41059;SDS011;26811;53.160;8.202;2023-03-11T15:34:35;10.60;;;4.22;;
41059;SDS011;26811;53.160;8.202;2023-03-11T15:44:57;9.05;;;4.43;;
41059;SDS011;26811;53.160;8.202;2023-03-11T15:50:05;10.13;;;3.67;;
41059;SDS011;26811;53.160;8.202;2023-03-11T15:55:18;6.78;;;3.00;;
41059;SDS011;26811;53.160;8.202;2023-03-11T16:00:19;4.05;;;2.80;;
41059;SDS011;26811;53.160;8.202;2023-03-11T16:05:22;5.97;;;3.10;;
41059;SDS011;26811;53.160;8.202;2023-03-11T16:10:24;5.93;;;3.40;;
41059;SDS011;26811;53.160;8.202;2023-03-11T16:15:31;4.32;;;2.72;;
41059;SDS011;26811;53.160;8.202;2023-03-11T16:20:44;6.82;;;3.88;;
41059;SDS011;26811;53.160;8.202;2023-03-11T16:25:55;4.93;;;3.42;;
41059;SDS011;26811;53.160;8.202;2023-03-11T16:30:57;4.38;;;3.38;;
41059;SDS011;26811;53.160;8.202;2023-03-11T16:35:58;5.97;;;3.05;;
41059;SDS011;26811;53.160;8.202;2023-03-11T16:40:59;3.60;;;2.78;;
41059;SDS011;26811;53.160;8.202;2023-03-11T16:46:01;7.25;;;3.90;;
41059;SDS011;26811;53.160;8.202;2023-03-11T16:51:02;12.65;;;4.70;;
41059;SDS011;26811;53.160;8.202;2023-03-11T16:56:03;9.98;;;4.05;;
41059;SDS011;26811;53.160;8.202;2023-03-11T17:01:04;14.60;;;4.40;;
41059;SDS011;26811;53.160;8.202;2023-03-11T17:06:05;10.27;;;3.95;;
41059;SDS011;26811;53.160;8.202;2023-03-11T17:11:12;5.60;;;3.10;;
41059;SDS011;26811;53.160;8.202;2023-03-11T17:16:23;7.30;;;3.50;;
41059;SDS011;26811;53.160;8.202;2023-03-11T17:21:23;9.85;;;3.72;;
41059;SDS011;26811;53.160;8.202;2023-03-11T17:26:24;10.93;;;4.28;;
41059;SDS011;26811;53.160;8.202;2023-03-11T17:31:26;7.10;;;4.10;;
41059;SDS011;26811;53.160;8.202;2023-03-11T17:36:27;18.52;;;7.72;;
41059;SDS011;26811;53.160;8.202;2023-03-11T17:41:27;15.32;;;6.82;;
41059;SDS011;26811;53.160;8.202;2023-03-11T17:46:28;15.23;;;6.80;;
41059;SDS011;26811;53.160;8.202;2023-03-11T17:51:29;25.67;;;11.25;;
41059;SDS011;26811;53.160;8.202;2023-03-11T17:56:29;19.48;;;9.63;;
41059;SDS011;26811;53.160;8.202;2023-03-11T18:01:30;13.48;;;6.97;;
41059;SDS011;26811;53.160;8.202;2023-03-11T18:06:30;12.95;;;6.05;;
41059;SDS011;26811;53.160;8.202;2023-03-11T18:11:31;13.05;;;7.10;;
41059;SDS011;26811;53.160;8.202;2023-03-11T18:16:32;17.58;;;10.00;;
41059;SDS011;26811;53.160;8.202;2023-03-11T18:21:32;16.83;;;9.63;;
41059;SDS011;26811;53.160;8.202;2023-03-11T18:26:33;23.13;;;10.40;;
41059;SDS011;26811;53.160;8.202;2023-03-11T18:31:33;16.88;;;9.48;;
41059;SDS011;26811;53.160;8.202;2023-03-11T18:36:37;25.65;;;10.40;;
41059;SDS011;26811;53.160;8.202;2023-03-11T18:41:42;17.52;;;10.60;;
41059;SDS011;26811;53.160;8.202;2023-03-11T18:51:43;14.02;;;7.70;;
41059;SDS011;26811;53.160;8.202;2023-03-11T18:56:44;17.30;;;8.65;;
41059;SDS011;26811;53.160;8.202;2023-03-11T19:01:44;13.90;;;7.30;;
41059;SDS011;26811;53.160;8.202;2023-03-11T19:06:45;14.27;;;8.65;;
41059;SDS011;26811;53.160;8.202;2023-03-11T19:11:45;12.55;;;7.13;;
41059;SDS011;26811;53.160;8.202;2023-03-11T19:16:46;19.90;;;7.50;;
41059;SDS011;26811;53.160;8.202;2023-03-11T19:21:46;16.80;;;8.10;;
41059;SDS011;26811;53.160;8.202;2023-03-11T19:26:47;13.25;;;8.50;;
41059;SDS011;26811;53.160;8.202;2023-03-11T19:31:47;20.23;;;8.70;;
41059;SDS011;26811;53.160;8.202;2023-03-11T19:36:48;15.15;;;7.82;;
41059;SDS011;26811;53.160;8.202;2023-03-11T19:41:48;11.95;;;6.78;;
41059;SDS011;26811;53.160;8.202;2023-03-11T19:46:49;14.65;;;5.95;;
41059;SDS011;26811;53.160;8.202;2023-03-11T19:51:50;24.83;;;9.85;;
41059;SDS011;26811;53.160;8.202;2023-03-11T19:56:54;20.85;;;8.63;;
41059;SDS011;26811;53.160;8.202;2023-03-11T20:01:55;18.25;;;7.38;;
41059;SDS011;26811;53.160;8.202;2023-03-11T20:06:55;9.30;;;6.47;;
41059;SDS011;26811;53.160;8.202;2023-03-11T20:11:56;9.77;;;5.82;;
41059;SDS011;26811;53.160;8.202;2023-03-11T20:16:56;12.25;;;7.45;;
41059;SDS011;26811;53.160;8.202;2023-03-11T20:21:57;13.52;;;6.28;;
41059;SDS011;26811;53.160;8.202;2023-03-11T20:26:57;13.35;;;6.82;;
41059;SDS011;26811;53.160;8.202;2023-03-11T20:31:58;19.40;;;8.10;;
41059;SDS011;26811;53.160;8.202;2023-03-11T20:36:59;19.80;;;8.00;;
41059;SDS011;26811;53.160;8.202;2023-03-11T20:41:59;17.15;;;7.75;;
41059;SDS011;26811;53.160;8.202;2023-03-11T20:47:00;11.82;;;7.07;;
41059;SDS011;26811;53.160;8.202;2023-03-11T20:52:00;14.05;;;7.80;;
41059;SDS011;26811;53.160;8.202;2023-03-11T20:57:01;12.65;;;6.90;;
41059;SDS011;26811;53.160;8.202;2023-03-11T21:02:02;11.02;;;6.30;;
41059;SDS011;26811;53.160;8.202;2023-03-11T21:07:03;16.67;;;7.60;;
41059;SDS011;26811;53.160;8.202;2023-03-11T21:12:04;16.08;;;7.20;;
41059;SDS011;26811;53.160;8.202;2023-03-11T21:17:04;11.93;;;7.05;;
41059;SDS011;26811;53.160;8.202;2023-03-11T21:22:05;8.75;;;6.15;;
41059;SDS011;26811;53.160;8.202;2023-03-11T21:27:05;12.98;;;7.07;;
41059;SDS011;26811;53.160;8.202;2023-03-11T21:32:06;13.68;;;6.65;;
41059;SDS011;26811;53.160;8.202;2023-03-11T21:37:07;12.10;;;6.68;;
41059;SDS011;26811;53.160;8.202;2023-03-11T21:42:07;12.82;;;7.00;;
41059;SDS011;26811;53.160;8.202;2023-03-11T21:47:08;14.27;;;7.57;;
41059;SDS011;26811;53.160;8.202;2023-03-11T21:52:08;13.20;;;6.97;;
41059;SDS011;26811;53.160;8.202;2023-03-11T21:57:09;11.98;;;6.30;;
41059;SDS011;26811;53.160;8.202;2023-03-11T22:02:13;31.42;;;12.13;;
41059;SDS011;26811;53.160;8.202;2023-03-11T22:07:16;43.67;;;13.38;;
41059;SDS011;26811;53.160;8.202;2023-03-11T22:12:16;20.48;;;10.15;;
41059;SDS011;26811;53.160;8.202;2023-03-11T22:17:17;12.35;;;7.38;;
41059;SDS011;26811;53.160;8.202;2023-03-11T22:22:17;20.50;;;8.57;;
41059;SDS011;26811;53.160;8.202;2023-03-11T22:27:18;41.58;;;12.20;;
41059;SDS011;26811;53.160;8.202;2023-03-11T22:32:18;29.48;;;11.20;;
41059;SDS011;26811;53.160;8.202;2023-03-11T22:37:19;38.85;;;12.82;;
41059;SDS011;26811;53.160;8.202;2023-03-11T22:42:19;58.35;;;25.52;;
41059;SDS011;26811;53.160;8.202;2023-03-11T22:47:20;19.30;;;10.30;;
41059;SDS011;26811;53.160;8.202;2023-03-11T22:52:20;14.75;;;7.47;;
41059;SDS011;26811;53.160;8.202;2023-03-11T22:57:21;16.30;;;8.18;;
41059;SDS011;26811;53.160;8.202;2023-03-11T23:02:21;12.55;;;6.85;;
41059;SDS011;26811;53.160;8.202;2023-03-11T23:07:22;13.27;;;8.23;;
41059;SDS011;26811;53.160;8.202;2023-03-11T23:12:23;11.88;;;7.63;;
41059;SDS011;26811;53.160;8.202;2023-03-11T23:17:23;12.98;;;8.05;;
41059;SDS011;26811;53.160;8.202;2023-03-11T23:22:24;17.58;;;7.90;;
41059;SDS011;26811;53.160;8.202;2023-03-11T23:27:24;11.50;;;6.88;;
41059;SDS011;26811;53.160;8.202;2023-03-11T23:32:25;16.70;;;6.60;;
41059;SDS011;26811;53.160;8.202;2023-03-11T23:37:25;8.75;;;7.22;;
41059;SDS011;26811;53.160;8.202;2023-03-11T23:42:26;13.30;;;7.15;;
41059;SDS011;26811;53.160;8.202;2023-03-11T23:47:26;8.52;;;6.35;;
41059;SDS011;26811;53.160;8.202;2023-03-11T23:52:27;9.15;;;6.32;;
41059;SDS011;26811;53.160;8.202;2023-03-11T23:57:28;9.00;;;6.72;;
